Farnborough, United Kingdom
Current Conditions -  °F | °C
As of 2:20 PM on Wednesday 28 Jan 2015 (Local Time) from EGLF Reporting Station
Scattered Clouds Scattered Clouds  
Wind Chill: 34°   Ceiling: Unl
Heat Index: 43°   Visibility: 6mi
Dew Point: 30°   Wind: 20mph
Humidity: 61%   Direction: 300°WNW
Pressure: 29.59"   Gusts: 33mph
Location:  51.29°N, 0.75°W
Report Text: EGLF 281420Z 30017G29KT 260V340 9999 SCT038 06/M01 Q1002
Loading
Personal Weather Stations






























Interactive Weather Map New forecast layout! Learn more

10-Day Weather Forecast

Advertisements
Track Severe Weather on mobile